Windermere, Canada
Current Conditions -  °F | °C
As of 10:19 PM on Saturday 25 Oct 2014 (Local Time) from CYXC Reporting Station
Haze Haze  
Wind Chill:   Ceiling: 5000
Heat Index:   Visibility: 3mi
Dew Point:   Wind: 3mph
Humidity: 93%   Direction: 110°ESE
Pressure: 29.57"   Gusts: NA
Location:  50.47°N, 115.97°W
Report Text: CYXC 260419Z 11003KT 070V150 3SM BR SCT003 SCT025 BKN050 OVC120 06/05 A2957 RMK SF3SC1SC3AC1 PRESRR SLP030 DENSITY ALT 3100FT
Loading
Personal Weather Stations






























Interactive Weather Map
Tropical Storm Tracking
New forecast layout! Learn more

10-Day Weather Forecast

Advertisements
Track Severe Weather on mobile